Time;durP1;ratioP1;P1;durP2;ratioP2;P2;SDS_P1;SDS_P2;PMS_P1;PMS_P2;Temp;Humidity;BMP_temperature;BMP_pressure;BME280_temperature;BME280_humidity;BME280_pressure;Samples;Min_cycle;Max_cycle;Signal;HPM_P1;HPM_P2
2021/06/15 01:11:52;;;;;;;29.40;22.42;;;13.70;89.00;;;;;;5038360;27;95886;-46
2021/06/15 01:14:50;;;;;;;26.15;20.30;;;13.70;88.80;;;;;;5028329;27;95854;-41
2021/06/15 01:17:29;;;;;;;23.85;19.23;;;13.80;88.50;;;;;;4978104;27;96062;-39
2021/06/15 01:20:18;;;;;;;22.45;18.10;;;14.00;88.10;;;;;;4955470;28;95987;-39
2021/06/15 01:23:09;;;;;;;23.73;18.38;;;14.20;87.90;;;;;;4965967;28;96590;-46
2021/06/15 01:26:05;;;;;;;24.98;19.25;;;14.10;87.50;;;;;;4974240;28;95538;-46
2021/06/15 01:28:46;;;;;;;23.48;18.65;;;14.10;87.40;;;;;;4983193;28;95968;-47
2021/06/15 01:31:32;;;;;;;20.67;17.27;;;14.10;87.40;;;;;;4968656;28;97268;-46
2021/06/15 01:34:06;;;;;;;21.30;15.70;;;14.10;87.30;;;;;;4980611;28;96354;-47
2021/06/15 01:36:49;;;;;;;20.50;16.70;;;14.10;87.40;;;;;;4984129;28;96262;-46
2021/06/15 01:39:26;;;;;;;24.88;17.75;;;14.10;87.40;;;;;;4968861;28;96209;-46
2021/06/15 01:42:07;;;;;;;21.60;16.88;;;14.10;87.10;;;;;;4964947;28;96254;-46
2021/06/15 01:44:41;;;;;;;19.92;16.20;;;14.20;87.60;;;;;;4974176;28;95810;-46
2021/06/15 01:47:13;;;;;;;20.42;16.15;;;14.30;88.10;;;;;;4987702;28;96085;-47
2021/06/15 01:49:52;;;;;;;22.02;16.95;;;14.40;87.60;;;;;;4963229;28;96023;-47
2021/06/15 01:52:36;;;;;;;20.23;15.93;;;14.60;87.10;;;;;;4975622;28;96439;-47
2021/06/15 01:55:10;;;;;;;18.40;15.13;;;14.80;86.80;;;;;;4971869;28;95949;-38
2021/06/15 01:57:54;;;;;;;22.48;15.38;;;15.00;85.60;;;;;;4972612;28;95768;-40
2021/06/15 02:00:27;;;;;;;20.50;15.35;;;15.20;85.40;;;;;;4972007;28;95864;-38
2021/06/15 02:03:04;;;;;;;16.65;13.80;;;15.30;84.90;;;;;;4973626;28;95932;-40
2021/06/15 02:05:54;;;;;;;16.88;14.75;;;15.50;83.90;;;;;;4975322;28;96190;-48
2021/06/15 02:08:38;;;;;;;18.45;14.70;;;15.50;83.30;;;;;;4989524;28;96272;-41
2021/06/15 02:11:30;;;;;;;15.70;13.18;;;15.60;82.80;;;;;;4987736;28;96114;-39
2021/06/15 02:14:26;;;;;;;18.30;14.10;;;15.70;82.50;;;;;;4974690;28;96484;-41
2021/06/15 02:17:16;;;;;;;18.40;14.98;;;15.80;82.30;;;;;;4974856;28;95814;-41
2021/06/15 02:20:13;;;;;;;15.38;12.75;;;15.90;81.80;;;;;;4974701;28;95829;-40
2021/06/15 02:22:53;;;;;;;16.30;13.30;;;16.00;81.20;;;;;;4959990;28;95834;-39
2021/06/15 02:25:34;;;;;;;14.73;12.65;;;16.10;81.10;;;;;;4967407;28;96409;-39
2021/06/15 02:28:05;;;;;;;15.80;12.73;;;16.30;81.20;;;;;;4958839;28;95662;-41
2021/06/15 02:30:36;;;;;;;15.13;12.73;;;16.40;81.10;;;;;;4938173;28;98693;-41
2021/06/15 02:33:12;;;;;;;;;;;16.50;80.20;;;;;;4947137;28;95917;-41
2021/06/15 02:35:52;;;;;;;12.75;11.20;;;16.60;79.90;;;;;;4968601;28;96208;-41
2021/06/15 02:38:42;;;;;;;12.45;11.05;;;16.70;79.60;;;;;;4953930;28;95751;-41
2021/06/15 02:41:15;;;;;;;14.18;11.93;;;16.80;79.40;;;;;;4974473;28;96212;-41
2021/06/15 02:43:47;;;;;;;13.60;11.68;;;16.90;78.90;;;;;;4958418;28;96036;-41
2021/06/15 02:46:20;;;;;;;11.68;10.48;;;17.00;78.80;;;;;;4935421;28;101890;-40
2021/06/15 02:48:54;;;;;;;13.00;10.90;;;17.00;78.30;;;;;;4946787;28;97618;-40
2021/06/15 02:51:30;;;;;;;13.02;10.45;;;17.20;78.50;;;;;;4961305;28;95970;-40
2021/06/15 02:54:28;;;;;;;12.95;9.93;;;17.30;78.70;;;;;;4953666;28;95436;-40
2021/06/15 02:57:00;;;;;;;12.90;11.57;;;17.40;78.30;;;;;;4944258;28;96647;-40
2021/06/15 02:59:34;;;;;;;10.73;9.30;;;17.50;78.10;;;;;;4965270;28;97745;-40
2021/06/15 03:02:04;;;;;;;10.90;9.80;;;17.60;77.80;;;;;;4954755;28;96139;-40
2021/06/15 03:04:47;;;;;;;12.60;9.88;;;17.60;77.30;;;;;;4965697;28;95772;-40
2021/06/15 03:07:18;;;;;;;11.88;10.07;;;17.80;77.10;;;;;;4947259;28;95855;-40
2021/06/15 03:09:53;;;;;;;9.45;8.45;;;17.80;77.00;;;;;;4959647;28;96213;-40
2021/06/15 03:12:39;;;;;;;8.77;7.72;;;18.00;76.90;;;;;;4965816;28;95371;-40
2021/06/15 03:15:14;;;;;;;10.93;9.07;;;18.00;76.50;;;;;;4967144;28;96063;-40
2021/06/15 03:18:07;;;;;;;10.77;9.55;;;18.00;76.40;;;;;;4952226;28;96885;-39
2021/06/15 03:20:40;;;;;;;9.35;7.00;;;18.10;75.70;;;;;;4967390;28;98161;-40
2021/06/15 03:23:48;;;;;;;9.52;7.88;;;18.20;75.40;;;;;;4968483;28;95860;-40
2021/06/15 03:26:48;;;;;;;8.77;7.10;;;18.30;76.20;;;;;;4954794;28;96088;-40
2021/06/15 03:29:24;;;;;;;8.38;7.00;;;18.30;75.40;;;;;;4952543;28;96527;-39
2021/06/15 03:32:00;;;;;;;8.95;7.45;;;18.30;75.10;;;;;;4963440;28;96029;-38
2021/06/15 03:34:39;;;;;;;7.82;7.03;;;18.30;75.30;;;;;;4959895;28;95618;-38
2021/06/15 03:37:23;;;;;;;9.35;7.30;;;18.30;74.40;;;;;;4965105;28;95308;-41
2021/06/15 03:39:59;;;;;;;9.18;8.25;;;18.30;73.90;;;;;;4979356;28;97346;-41
2021/06/15 03:42:38;;;;;;;9.35;8.38;;;18.30;73.90;;;;;;4952785;28;96078;-39
2021/06/15 03:45:12;;;;;;;9.52;8.50;;;18.30;73.70;;;;;;4963027;28;96119;-39
2021/06/15 03:47:47;;;;;;;8.38;7.57;;;18.30;72.80;;;;;;4965717;28;96358;-39
2021/06/15 03:50:19;;;;;;;9.30;8.40;;;18.30;72.90;;;;;;4965062;28;96651;-45
2021/06/15 03:52:55;;;;;;;9.20;8.30;;;18.30;73.30;;;;;;4961472;28;96145;-41
2021/06/15 03:55:32;;;;;;;8.02;7.32;;;18.30;73.30;;;;;;4966637;28;95597;-41
2021/06/15 03:58:07;;;;;;;8.93;8.10;;;18.30;72.60;;;;;;4961512;28;96050;-40
2021/06/15 04:00:46;;;;;;;8.02;7.32;;;18.30;72.70;;;;;;4958541;28;98874;-38
2021/06/15 04:03:18;;;;;;;8.48;7.20;;;18.30;72.60;;;;;;4968130;28;96243;-38
2021/06/15 04:05:57;;;;;;;9.40;7.45;;;18.30;72.60;;;;;;4961476;28;95949;-40
2021/06/15 04:08:29;;;;;;;8.68;7.88;;;18.30;74.00;;;;;;4963617;28;96731;-39
2021/06/15 04:11:00;;;;;;;7.97;7.15;;;18.30;71.80;;;;;;4962251;28;96434;-41
2021/06/15 04:13:35;;;;;;;11.27;10.07;;;18.20;72.20;;;;;;4961355;28;96360;-38
2021/06/15 04:16:07;;;;;;;10.43;8.23;;;18.30;71.70;;;;;;4962556;28;96474;-40
2021/06/15 04:18:45;;;;;;;7.72;7.03;;;18.30;72.80;;;;;;4961726;28;96017;-40
2021/06/15 04:21:17;;;;;;;7.65;6.95;;;18.40;72.00;;;;;;4959717;28;96129;-39
2021/06/15 04:24:01;;;;;;;9.73;8.70;;;18.40;72.20;;;;;;4962689;28;95996;-41
2021/06/15 04:26:35;;;;;;;18.60;16.10;;;18.40;72.20;;;;;;4957951;28;95760;-40
2021/06/15 04:29:10;;;;;;;14.73;13.23;;;18.40;71.30;;;;;;4961965;28;96602;-40
2021/06/15 04:31:41;;;;;;;16.27;14.18;;;18.40;71.90;;;;;;4951943;28;96641;-39
2021/06/15 04:34:17;;;;;;;14.45;12.50;;;18.40;71.50;;;;;;4959528;28;95476;-40
2021/06/15 04:36:49;;;;;;;14.43;12.90;;;18.40;71.40;;;;;;4957205;28;98027;-40
2021/06/15 04:39:25;;;;;;;15.27;13.02;;;18.40;71.50;;;;;;4960733;28;96017;-40
2021/06/15 04:41:56;;;;;;;14.43;12.63;;;18.40;71.60;;;;;;4960414;28;96627;-39
2021/06/15 04:44:37;;;;;;;18.30;14.40;;;18.40;71.80;;;;;;4961849;28;95370;-38
2021/06/15 04:47:26;;;;;;;24.05;17.10;;;18.30;71.60;;;;;;4953979;28;96224;-38
2021/06/15 04:50:19;;;;;;;22.42;18.65;;;18.30;71.60;;;;;;4961627;28;95720;-46
2021/06/15 04:52:51;;;;;;;17.10;13.45;;;18.30;71.80;;;;;;4960948;28;96449;-38
2021/06/15 04:55:29;;;;;;;13.18;11.77;;;18.30;72.50;;;;;;4963449;28;95939;-41
2021/06/15 04:58:02;;;;;;;14.27;11.85;;;18.30;72.60;;;;;;4960764;28;95301;-39
2021/06/15 05:00:36;;;;;;;14.30;10.93;;;18.30;72.30;;;;;;4957644;28;98880;-41
2021/06/15 05:03:09;;;;;;;12.32;10.68;;;18.30;72.20;;;;;;4959617;28;96698;-42
2021/06/15 05:05:42;;;;;;;14.15;11.77;;;18.30;71.80;;;;;;4959768;28;98255;-41
2021/06/15 05:08:19;;;;;;;19.73;17.23;;;18.30;71.90;;;;;;4957462;28;96641;-39
2021/06/15 05:10:52;;;;;;;23.92;20.63;;;18.30;71.90;;;;;;4961598;28;95567;-39
2021/06/15 05:13:25;;;;;;;35.03;30.02;;;18.30;71.90;;;;;;4959261;28;96325;-39
2021/06/15 05:15:58;;;;;;;45.58;38.67;;;18.30;71.30;;;;;;4957819;28;96328;-41
2021/06/15 05:18:31;;;;;;;36.78;31.10;;;18.20;71.20;;;;;;4958845;28;96525;-39
2021/06/15 05:21:06;;;;;;;37.92;29.83;;;18.30;72.40;;;;;;4962268;28;96414;-39
2021/06/15 05:23:51;;;;;;;29.35;25.00;;;18.30;72.60;;;;;;4958589;28;96682;-38
2021/06/15 05:26:21;;;;;;;28.10;24.10;;;18.30;72.90;;;;;;4962131;28;95784;-39
2021/06/15 05:28:51;;;;;;;25.55;22.17;;;18.30;73.00;;;;;;4959388;28;95920;-38
2021/06/15 05:31:21;;;;;;;27.67;23.70;;;18.30;73.30;;;;;;4958737;28;96089;-39
2021/06/15 05:33:51;;;;;;;22.25;19.73;;;18.20;73.60;;;;;;4959150;28;95880;-39
2021/06/15 05:36:21;;;;;;;23.85;20.85;;;18.20;73.60;;;;;;4961788;28;95830;-38
2021/06/15 05:38:53;;;;;;;25.48;20.98;;;18.30;73.70;;;;;;4959429;28;96007;-40
2021/06/15 05:41:24;;;;;;;25.25;20.90;;;18.20;73.60;;;;;;4962549;28;95408;-39
2021/06/15 05:43:55;;;;;;;25.95;21.30;;;18.20;73.80;;;;;;4962735;28;95925;-39
2021/06/15 05:46:27;;;;;;;23.45;20.25;;;18.20;74.00;;;;;;4957847;28;97730;-39
2021/06/15 05:48:58;;;;;;;26.52;19.65;;;18.20;74.10;;;;;;4962996;28;96343;-39
2021/06/15 05:51:29;;;;;;;22.88;18.55;;;18.20;74.90;;;;;;4961304;28;95612;-39
2021/06/15 05:54:02;;;;;;;;;;;18.20;74.80;;;;;;4962864;28;96536;-38
2021/06/15 05:56:34;;;;;;;22.85;18.45;;;18.20;75.20;;;;;;4961162;28;103530;-40
2021/06/15 05:59:04;;;;;;;21.60;17.05;;;18.20;75.00;;;;;;4966784;28;95801;-39
2021/06/15 06:01:36;;;;;;;20.58;17.33;;;18.20;74.70;;;;;;4959732;28;98546;-39
2021/06/15 06:04:12;;;;;;;;;;;18.20;74.60;;;;;;4965665;28;96629;-39
2021/06/15 06:09:32;;;;;;;19.90;17.63;;;18.20;74.60;;;;;;4964462;28;96007;-40
2021/06/15 06:12:04;;;;;;;21.10;16.67;;;18.20;74.80;;;;;;4959455;28;99644;-39
2021/06/15 06:14:34;;;;;;;;;;;18.20;75.00;;;;;;4964354;28;96820;-37
2021/06/15 06:17:09;;;;;;;20.00;16.57;;;18.20;75.00;;;;;;4958621;28;96483;-38
2021/06/15 06:19:40;;;;;;;20.02;16.52;;;18.10;75.10;;;;;;4963185;28;95830;-42
2021/06/15 06:22:11;;;;;;;18.17;15.60;;;18.10;75.20;;;;;;4961298;28;96958;-39
2021/06/15 06:24:42;;;;;;;17.98;15.25;;;18.10;75.30;;;;;;4964778;28;95947;-38
2021/06/15 06:27:12;;;;;;;17.77;15.40;;;18.10;75.10;;;;;;4960184;28;96343;-39
2021/06/15 06:29:42;;;;;;;19.67;16.10;;;18.10;75.10;;;;;;4963940;28;95670;-38
2021/06/15 06:32:13;;;;;;;17.35;15.20;;;18.00;75.20;;;;;;4958790;28;96767;-38
2021/06/15 06:34:44;;;;;;;16.50;14.70;;;18.00;75.40;;;;;;4964077;28;95932;-38
2021/06/15 06:37:15;;;;;;;19.88;16.40;;;17.90;75.30;;;;;;4960808;28;96423;-40
2021/06/15 06:39:46;;;;;;;17.02;14.80;;;17.90;75.30;;;;;;4966212;28;96112;-40
2021/06/15 06:42:18;;;;;;;17.35;14.68;;;17.90;75.40;;;;;;4963054;28;102740;-38
2021/06/15 06:44:49;;;;;;;18.15;14.38;;;17.90;75.40;;;;;;4963772;28;96171;-38
2021/06/15 06:47:20;;;;;;;18.42;15.07;;;17.80;75.50;;;;;;4957762;28;95796;-38
2021/06/15 06:49:52;;;;;;;17.75;14.93;;;17.80;75.70;;;;;;4966607;28;95631;-41
2021/06/15 06:52:23;;;;;;;22.40;14.97;;;17.80;75.80;;;;;;4963292;28;96464;-37
2021/06/15 06:54:54;;;;;;;17.55;14.35;;;17.80;75.70;;;;;;4965578;28;97107;-38
2021/06/15 06:57:25;;;;;;;16.60;14.48;;;17.70;75.80;;;;;;4961725;28;96064;-38
2021/06/15 06:59:58;;;;;;;14.25;12.60;;;17.70;76.20;;;;;;4965730;28;97043;-38
2021/06/15 07:02:29;;;;;;;16.70;13.68;;;17.70;76.20;;;;;;4959916;28;97771;-38
2021/06/15 07:05:02;;;;;;;15.45;13.30;;;17.80;75.90;;;;;;4964727;28;96161;-38
2021/06/15 07:07:35;;;;;;;17.02;13.43;;;17.70;75.70;;;;;;4961832;28;95387;-38
2021/06/15 07:10:06;;;;;;;17.45;13.95;;;17.80;75.70;;;;;;4963073;28;95475;-39
2021/06/15 07:12:37;;;;;;;16.13;13.20;;;17.80;75.60;;;;;;4962093;28;95465;-38
2021/06/15 07:15:10;;;;;;;16.58;13.25;;;17.70;75.50;;;;;;4964628;28;96520;-38
2021/06/15 07:17:41;;;;;;;13.55;11.70;;;17.70;75.50;;;;;;4959803;28;95844;-37
2021/06/15 07:20:12;;;;;;;;;;;17.70;76.20;;;;;;4963203;28;96539;-38
2021/06/15 07:22:42;;;;;;;14.43;11.73;;;17.70;76.60;;;;;;4981830;28;95970;-38
2021/06/15 07:25:13;;;;;;;19.25;12.23;;;17.70;76.50;;;;;;4961615;28;95888;-38
2021/06/15 07:27:43;;;;;;;15.07;11.07;;;17.60;76.30;;;;;;4963980;28;96329;-39
2021/06/15 07:30:14;;;;;;;14.70;11.43;;;17.60;76.20;;;;;;4957048;28;97282;-38
2021/06/15 07:32:47;;;;;;;16.15;11.77;;;17.60;76.20;;;;;;4962986;28;95767;-39
2021/06/15 07:35:19;;;;;;;16.33;11.32;;;17.60;76.20;;;;;;4959758;28;97167;-38
2021/06/15 07:37:51;;;;;;;13.35;10.82;;;17.60;76.10;;;;;;4963111;28;95660;-38
2021/06/15 07:40:23;;;;;;;14.07;10.25;;;17.50;76.00;;;;;;4961542;28;96125;-38
2021/06/15 07:42:56;;;;;;;12.73;10.80;;;17.50;76.10;;;;;;4964498;28;95625;-38
2021/06/15 07:45:34;;;;;;;13.73;11.63;;;17.50;76.20;;;;;;4958927;28;96240;-38
2021/06/15 07:48:05;;;;;;;12.30;10.73;;;17.50;76.10;;;;;;4962627;28;101648;-38
2021/06/15 07:50:35;;;;;;;12.67;9.97;;;17.40;76.50;;;;;;4961625;28;96161;-38
2021/06/15 07:53:06;;;;;;;12.30;10.63;;;17.50;76.60;;;;;;4964111;28;95737;-38
2021/06/15 07:55:37;;;;;;;12.68;9.88;;;17.70;76.40;;;;;;4960090;28;96453;-38
2021/06/15 07:58:08;;;;;;;10.48;9.13;;;17.70;76.40;;;;;;4965432;28;95925;-38
2021/06/15 08:00:39;;;;;;;10.07;8.60;;;17.80;76.20;;;;;;4959074;28;95719;-38
2021/06/15 08:03:10;;;;;;;;;;;17.90;76.20;;;;;;4981590;28;95530;-38
2021/06/15 08:05:41;;;;;;;9.38;8.38;;;17.80;76.10;;;;;;4963173;28;96110;-38
2021/06/15 08:08:12;;;;;;;9.60;7.95;;;17.90;76.10;;;;;;4960981;28;97283;-38
2021/06/15 08:10:43;;;;;;;9.32;7.82;;;17.90;76.10;;;;;;4961255;28;95736;-38
2021/06/15 08:13:15;;;;;;;12.25;8.80;;;17.90;76.30;;;;;;4965352;28;95746;-38
2021/06/15 08:15:48;;;;;;;9.05;7.28;;;17.90;76.40;;;;;;4957995;28;96502;-38
2021/06/15 08:18:20;;;;;;;9.63;8.63;;;17.80;76.40;;;;;;4964367;28;98095;-38
2021/06/15 08:20:51;;;;;;;14.18;8.77;;;17.80;76.50;;;;;;4961081;28;95691;-38
2021/06/15 08:23:25;;;;;;;10.13;8.82;;;17.80;76.70;;;;;;4964253;28;96043;-38
2021/06/15 08:25:56;;;;;;;9.93;8.60;;;17.80;76.90;;;;;;4960399;28;96622;-38
2021/06/15 08:28:26;;;;;;;11.93;9.65;;;17.80;77.00;;;;;;4964834;28;95809;-38
2021/06/15 08:30:58;;;;;;;11.48;9.88;;;17.80;77.10;;;;;;4957476;28;97755;-38
2021/06/15 08:33:31;;;;;;;9.40;8.43;;;17.80;77.20;;;;;;4962668;28;96367;-38
2021/06/15 08:36:04;;;;;;;10.50;8.60;;;17.70;77.10;;;;;;4959255;28;96655;-38
2021/06/15 08:38:35;;;;;;;10.98;9.50;;;17.70;77.10;;;;;;4962875;28;96454;-38
2021/06/15 08:41:05;;;;;;;10.90;9.73;;;17.70;77.20;;;;;;4957850;28;95826;-38
2021/06/15 08:43:36;;;;;;;10.13;9.02;;;17.70;77.30;;;;;;4960004;28;95979;-38
2021/06/15 08:46:08;;;;;;;11.18;9.55;;;17.60;77.40;;;;;;4954856;28;96695;-39
2021/06/15 08:48:38;;;;;;;9.80;8.80;;;17.60;77.50;;;;;;4964606;28;95299;-38
2021/06/15 08:51:11;;;;;;;10.40;9.00;;;17.60;77.60;;;;;;4964047;28;96005;-38
2021/06/15 08:53:44;;;;;;;9.80;8.80;;;17.60;77.70;;;;;;4962757;28;95448;-38
2021/06/15 08:56:22;;;;;;;9.88;8.88;;;17.50;77.70;;;;;;4963423;28;96294;-38
2021/06/15 08:59:29;;;;;;;10.07;8.60;;;17.50;77.90;;;;;;4960629;28;96666;-38
2021/06/15 09:02:08;;;;;;;10.05;9.02;;;17.50;77.80;;;;;;4952623;28;97501;-39
2021/06/15 09:04:39;;;;;;;10.10;9.10;;;17.50;77.90;;;;;;4964444;28;95835;-39
2021/06/15 09:07:12;;;;;;;10.38;9.27;;;17.50;77.90;;;;;;4958333;28;96544;-39
2021/06/15 09:09:46;;;;;;;9.77;8.57;;;17.40;77.80;;;;;;4961211;28;96440;-38
2021/06/15 09:12:20;;;;;;;10.82;8.95;;;17.40;77.80;;;;;;4960193;28;98287;-39
2021/06/15 09:14:56;;;;;;;9.60;8.60;;;17.40;77.90;;;;;;4961869;28;96866;-38
2021/06/15 09:17:28;;;;;;;9.23;7.85;;;17.40;77.80;;;;;;4954216;28;95849;-38
2021/06/15 09:20:09;;;;;;;8.43;7.55;;;17.40;77.80;;;;;;4961530;28;96508;-38
2021/06/15 09:22:39;;;;;;;9.17;7.77;;;17.40;77.90;;;;;;4958832;28;96152;-38
2021/06/15 09:25:15;;;;;;;9.30;8.37;;;17.30;78.10;;;;;;4964473;28;96111;-38
2021/06/15 09:27:45;;;;;;;8.23;7.10;;;17.40;77.90;;;;;;4961353;28;96524;-38
2021/06/15 09:30:17;;;;;;;10.45;8.13;;;17.50;77.60;;;;;;4959201;28;95876;-43
2021/06/15 09:32:49;;;;;;;7.45;6.63;;;17.50;77.50;;;;;;4963602;28;96680;-43
2021/06/15 09:35:32;;;;;;;8.90;7.95;;;17.60;77.50;;;;;;4948599;28;96137;-42
2021/06/15 09:38:03;;;;;;;7.75;6.95;;;17.70;77.30;;;;;;4965292;28;96557;-44
2021/06/15 09:40:35;;;;;;;8.88;7.80;;;17.70;77.30;;;;;;4963827;28;96021;-44
2021/06/15 09:43:05;;;;;;;;;;;17.70;77.90;;;;;;4967267;28;96081;-43
2021/06/15 09:45:45;;;;;;;10.37;7.50;;;17.80;77.30;;;;;;4960059;28;96601;-42
2021/06/15 09:48:36;;;;;;;6.70;5.95;;;17.80;77.30;;;;;;4965208;28;96474;-43
2021/06/15 09:51:13;;;;;;;8.52;6.28;;;17.80;77.50;;;;;;4967156;28;95705;-42
2021/06/15 09:53:58;;;;;;;9.52;6.85;;;17.90;77.80;;;;;;4965783;28;95735;-42
2021/06/15 09:56:30;;;;;;;7.70;6.90;;;17.80;78.10;;;;;;4967314;28;95968;-42
2021/06/15 09:59:01;;;;;;;10.07;7.07;;;17.80;77.90;;;;;;4963491;28;96696;-42
2021/06/15 10:01:37;;;;;;;7.60;6.38;;;17.80;77.90;;;;;;4960777;28;96669;-43
2021/06/15 10:04:20;;;;;;;11.95;8.30;;;17.90;77.90;;;;;;4962133;28;96055;-42
2021/06/15 10:06:57;;;;;;;8.50;6.63;;;17.80;77.80;;;;;;4963276;28;95849;-42
2021/06/15 10:09:37;;;;;;;9.75;8.60;;;17.80;77.90;;;;;;4961235;28;95887;-42
2021/06/15 10:12:09;;;;;;;11.02;8.32;;;17.80;77.90;;;;;;4965677;28;96706;-41
2021/06/15 10:14:40;;;;;;;10.52;8.95;;;17.80;77.90;;;;;;4961084;28;97217;-43
2021/06/15 10:17:11;;;;;;;;;;;17.70;78.00;;;;;;4976659;28;95880;-42
2021/06/15 10:19:43;;;;;;;11.50;8.27;;;17.70;77.90;;;;;;4964262;28;96032;-42
2021/06/15 10:22:14;;;;;;;14.25;9.43;;;17.70;78.00;;;;;;4963294;28;96016;-41
2021/06/15 10:24:45;;;;;;;9.32;8.32;;;17.70;78.00;;;;;;4963546;28;95965;-42
2021/06/15 10:27:15;;;;;;;9.23;8.18;;;17.70;78.00;;;;;;4968229;28;96360;-42
2021/06/15 10:29:50;;;;;;;;;;;17.60;77.90;;;;;;4966760;28;96133;-42
2021/06/15 10:32:23;;;;;;;10.00;8.73;;;17.50;78.10;;;;;;4963128;28;95452;-42
2021/06/15 10:35:06;;;;;;;10.48;8.15;;;17.50;78.20;;;;;;4968458;28;95543;-42
2021/06/15 10:37:42;;;;;;;10.05;8.63;;;17.40;78.40;;;;;;4967259;28;97878;-43
2021/06/15 10:40:15;;;;;;;13.10;10.23;;;17.40;78.40;;;;;;4966984;28;96478;-43
2021/06/15 10:43:22;;;;;;;10.40;9.05;;;17.40;78.60;;;;;;4960032;28;95932;-43
2021/06/15 10:46:05;;;;;;;11.00;9.82;;;17.30;78.60;;;;;;4956654;28;95873;-43
2021/06/15 10:48:46;;;;;;;11.02;9.27;;;17.30;78.80;;;;;;4967849;28;95890;-43
2021/06/15 10:51:37;;;;;;;10.23;9.23;;;17.20;78.80;;;;;;4960676;28;96160;-44
2021/06/15 10:54:40;;;;;;;10.63;9.50;;;17.10;78.90;;;;;;4967178;28;96183;-44
2021/06/15 10:57:19;;;;;;;13.45;9.93;;;17.10;79.00;;;;;;4965305;28;95772;-39
2021/06/15 11:00:12;;;;;;;10.98;8.68;;;17.10;79.30;;;;;;4969318;28;95812;-38
2021/06/15 11:03:19;;;;;;;11.68;9.60;;;17.10;79.30;;;;;;4965577;28;96556;-39
2021/06/15 11:06:02;;;;;;;11.45;9.55;;;17.10;79.60;;;;;;4967201;28;96165;-38
2021/06/15 11:08:33;;;;;;;12.30;10.57;;;17.10;80.40;;;;;;4969738;28;95697;-38
2021/06/15 11:11:26;;;;;;;11.85;9.82;;;17.00;80.70;;;;;;4962056;28;96941;-39
2021/06/15 11:14:23;;;;;;;11.30;9.95;;;17.00;81.00;;;;;;4962742;28;96938;-38
2021/06/15 11:17:00;;;;;;;11.15;9.93;;;16.90;81.30;;;;;;4955331;28;95786;-39
2021/06/15 11:19:32;;;;;;;13.13;9.75;;;16.90;81.30;;;;;;4961592;28;95739;-38
2021/06/15 11:22:08;;;;;;;11.20;10.00;;;16.90;81.40;;;;;;4970151;28;95802;-39
2021/06/15 11:27:27;;;;;;;10.88;9.63;;;16.90;81.50;;;;;;4960436;28;95981;-39
2021/06/15 11:30:18;;;;;;;11.82;10.27;;;16.80;81.70;;;;;;4966597;28;95752;-39
2021/06/15 11:33:02;;;;;;;11.30;9.98;;;16.90;81.80;;;;;;4963549;28;95683;-39
2021/06/15 11:35:41;;;;;;;12.05;10.30;;;16.80;81.80;;;;;;4967100;28;96923;-38
2021/06/15 11:38:17;;;;;;;11.75;10.63;;;16.80;81.70;;;;;;4957544;28;95906;-39
2021/06/15 11:40:48;;;;;;;11.63;10.35;;;16.80;81.90;;;;;;4968382;28;95949;-39
2021/06/15 11:43:20;;;;;;;10.93;9.80;;;16.80;82.00;;;;;;4963994;28;95775;-39
2021/06/15 11:45:53;;;;;;;11.45;9.75;;;16.70;81.90;;;;;;4963529;28;97046;-39
2021/06/15 11:48:35;;;;;;;11.35;10.02;;;16.70;81.90;;;;;;4963521;28;96389;-39
2021/06/15 11:51:12;;;;;;;12.05;10.18;;;16.70;81.60;;;;;;4960535;28;95702;-38
2021/06/15 11:53:44;;;;;;;14.00;10.48;;;16.70;81.50;;;;;;4952475;28;96182;-38
2021/06/15 11:56:15;;;;;;;12.75;10.90;;;16.70;82.00;;;;;;4959628;28;97545;-38
2021/06/15 11:58:55;;;;;;;12.23;10.43;;;16.60;82.00;;;;;;4954409;28;96004;-38
2021/06/15 12:01:27;;;;;;;12.57;10.80;;;16.60;82.00;;;;;;4952657;28;96032;-38
2021/06/15 12:04:08;;;;;;;14.10;11.98;;;16.60;82.10;;;;;;4955091;28;95837;-46
2021/06/15 12:06:40;;;;;;;12.88;10.57;;;16.60;82.00;;;;;;4959968;28;96520;-46
2021/06/15 12:09:11;;;;;;;13.93;10.88;;;16.60;81.90;;;;;;4960157;28;95835;-46
2021/06/15 12:11:42;;;;;;;13.57;11.15;;;16.50;81.90;;;;;;4968404;28;95902;-46
2021/06/15 12:14:13;;;;;;;11.53;10.33;;;16.50;81.80;;;;;;4963747;28;95741;-47
2021/06/15 12:16:44;;;;;;;13.50;10.68;;;16.50;81.60;;;;;;4952575;28;97171;-46
2021/06/15 12:19:15;;;;;;;12.68;10.75;;;16.50;81.70;;;;;;4962540;28;95849;-46
2021/06/15 12:21:46;;;;;;;14.00;12.43;;;16.50;81.70;;;;;;4966266;28;95819;-47
2021/06/15 12:24:16;;;;;;;12.65;11.35;;;16.40;81.70;;;;;;4968349;28;95895;-46
2021/06/15 12:26:47;;;;;;;12.82;11.52;;;16.40;81.70;;;;;;4965129;28;96568;-46
2021/06/15 12:29:18;;;;;;;12.97;11.60;;;16.40;81.70;;;;;;4964516;28;96246;-46
2021/06/15 12:31:53;;;;;;;12.52;10.30;;;16.30;81.70;;;;;;4961441;28;95622;-46
2021/06/15 12:34:25;;;;;;;12.70;10.52;;;16.30;81.70;;;;;;4964462;28;96262;-46
2021/06/15 12:37:03;;;;;;;13.70;11.80;;;16.30;81.80;;;;;;4963977;28;96814;-46
2021/06/15 12:41:10;;;;;;;13.75;11.88;;;16.20;81.40;;;;;;5090399;27;96937;-47
2021/06/15 12:43:44;;;;;;;12.98;11.32;;;16.20;82.60;;;;;;5085976;27;97147;-47
2021/06/15 12:46:35;;;;;;;14.32;12.38;;;16.20;82.00;;;;;;5078628;27;97632;-49
2021/06/15 12:49:23;;;;;;;13.77;11.38;;;16.20;82.00;;;;;;5069197;27;95935;-47
2021/06/15 12:52:01;;;;;;;13.85;11.35;;;16.10;82.10;;;;;;5068860;27;95959;-48
2021/06/15 12:54:36;;;;;;;14.43;11.82;;;16.10;82.10;;;;;;5077334;27;96236;-57
2021/06/15 12:57:07;;;;;;;13.27;10.27;;;16.10;82.10;;;;;;5047896;27;95946;-58
2021/06/15 12:59:44;;;;;;;13.00;10.57;;;16.10;82.20;;;;;;5045619;27;96065;-46
2021/06/15 13:02:17;;;;;;;10.57;9.43;;;16.10;82.00;;;;;;5050321;27;96174;-47
2021/06/15 13:05:03;;;;;;;13.95;11.35;;;16.10;81.90;;;;;;5071019;27;96534;-58
2021/06/15 13:07:34;;;;;;;13.15;11.57;;;16.00;81.80;;;;;;5046313;27;95822;-47
2021/06/15 13:10:30;;;;;;;12.82;10.93;;;16.00;81.80;;;;;;5074569;27;97251;-57
2021/06/15 13:13:02;;;;;;;13.23;10.90;;;16.00;81.70;;;;;;5065846;27;96797;-48
2021/06/15 13:15:34;;;;;;;12.90;11.25;;;16.00;81.70;;;;;;5060620;27;95817;-57
2021/06/15 13:18:11;;;;;;;12.73;10.48;;;15.90;81.70;;;;;;5072774;27;97569;-59
2021/06/15 13:20:42;;;;;;;15.05;10.05;;;15.90;81.70;;;;;;5067882;27;96236;-59
2021/06/15 13:23:21;;;;;;;11.50;9.83;;;15.90;81.70;;;;;;5056188;27;96224;-50
2021/06/15 13:25:52;;;;;;;11.98;9.93;;;15.90;81.80;;;;;;5073207;27;95811;-57
2021/06/15 13:28:25;;;;;;;;;;;15.90;81.70;;;;;;5054775;27;96766;-57
2021/06/15 13:30:56;;;;;;;13.38;10.20;;;15.90;81.60;;;;;;5064156;27;96113;-48
2021/06/15 13:33:28;;;;;;;13.15;11.00;;;15.90;81.50;;;;;;5067958;27;96269;-57
2021/06/15 13:35:59;;;;;;;12.57;11.15;;;15.80;81.50;;;;;;5055236;27;96078;-47
2021/06/15 13:38:33;;;;;;;13.95;11.15;;;15.80;81.40;;;;;;5069031;27;95710;-58
2021/06/15 13:41:06;;;;;;;12.88;9.95;;;15.80;81.50;;;;;;5063772;27;96010;-58
2021/06/15 13:43:43;;;;;;;14.52;11.25;;;15.80;81.50;;;;;;5053543;27;96785;-58
2021/06/15 13:46:18;;;;;;;12.32;10.80;;;15.70;81.50;;;;;;5065089;27;96857;-47
2021/06/15 13:49:10;;;;;;;11.88;10.63;;;15.70;81.50;;;;;;5065518;27;96590;-58
2021/06/15 13:51:42;;;;;;;14.23;11.00;;;15.70;81.50;;;;;;5062742;27;95654;-47
2021/06/15 13:54:13;;;;;;;12.43;11.07;;;15.70;81.50;;;;;;5038005;27;97446;-46
2021/06/15 13:56:44;;;;;;;14.05;11.35;;;15.70;81.50;;;;;;5052113;27;95730;-48
2021/06/15 13:59:14;;;;;;;13.20;10.63;;;15.70;81.50;;;;;;5055541;27;95725;-55
2021/06/15 14:01:46;;;;;;;;;;;15.60;81.50;;;;;;5050112;27;96571;-54
2021/06/15 14:04:16;;;;;;;12.77;11.05;;;15.60;81.60;;;;;;5051728;27;96328;-46
2021/06/15 14:06:47;;;;;;;12.23;9.98;;;15.60;81.50;;;;;;5033741;27;95903;-55
2021/06/15 14:09:18;;;;;;;11.82;10.18;;;15.60;81.60;;;;;;5055147;27;95823;-46
2021/06/15 14:11:50;;;;;;;12.80;10.23;;;15.50;81.50;;;;;;5051520;27;96642;-54
2021/06/15 14:14:23;;;;;;;12.70;11.40;;;15.60;81.50;;;;;;5057781;27;95821;-56
2021/06/15 14:16:54;;;;;;;13.27;10.52;;;15.50;81.50;;;;;;5056411;27;95635;-57
2021/06/15 14:19:26;;;;;;;13.40;10.73;;;15.50;81.50;;;;;;5036386;27;95645;-56
2021/06/15 14:21:57;;;;;;;12.32;9.85;;;15.50;81.50;;;;;;5030024;27;98188;-57
2021/06/15 14:24:28;;;;;;;11.65;10.35;;;15.50;81.60;;;;;;5054942;27;95765;-57
2021/06/15 14:27:03;;;;;;;14.15;10.77;;;15.40;81.40;;;;;;5055964;27;96438;-55
2021/06/15 14:29:34;;;;;;;13.93;11.05;;;15.50;81.60;;;;;;5053935;27;95849;-58
2021/06/15 14:32:04;;;;;;;13.00;11.33;;;15.40;81.50;;;;;;5066519;27;97615;-46
2021/06/15 14:34:36;;;;;;;12.38;10.65;;;15.40;81.50;;;;;;5080280;27;95723;-55
2021/06/15 14:37:08;;;;;;;13.82;10.60;;;15.30;81.50;;;;;;5069251;27;97292;-55